createdAt,value
2018-12-03T00:01:31.802Z,10.80
2018-12-03T00:04:13.019Z,10.80
2018-12-03T00:06:40.747Z,10.80
2018-12-03T00:09:09.075Z,10.80
2018-12-03T00:11:37.028Z,10.80
2018-12-03T00:14:04.739Z,10.80
2018-12-03T00:16:32.414Z,10.80
2018-12-03T00:19:00.048Z,10.80
2018-12-03T00:21:27.671Z,10.80
2018-12-03T00:23:55.379Z,10.80
2018-12-03T00:26:22.984Z,10.80
2018-12-03T00:28:50.668Z,10.80
2018-12-03T00:31:18.355Z,10.80
2018-12-03T00:33:46.017Z,10.80
2018-12-03T00:36:13.668Z,10.80
2018-12-03T00:38:41.280Z,10.80
2018-12-03T00:41:08.867Z,10.80
2018-12-03T00:43:36.505Z,10.80
2018-12-03T00:46:04.168Z,10.80
2018-12-03T00:48:31.777Z,10.80
2018-12-03T00:50:59.427Z,10.80
2018-12-03T00:53:27.018Z,10.80
2018-12-03T00:55:54.655Z,10.70
2018-12-03T00:58:22.203Z,10.70
2018-12-03T01:00:49.798Z,10.70
2018-12-03T01:03:17.375Z,10.70
2018-12-03T01:05:51.901Z,10.70
2018-12-03T01:08:19.597Z,10.70
2018-12-03T01:10:47.175Z,10.70
2018-12-03T01:13:14.757Z,10.70
2018-12-03T01:15:42.389Z,10.70
2018-12-03T01:18:09.991Z,10.70
2018-12-03T01:20:37.612Z,10.70
2018-12-03T01:23:05.541Z,10.80
2018-12-03T01:25:33.190Z,10.80
2018-12-03T01:28:00.924Z,10.80
2018-12-03T01:30:28.534Z,10.80
2018-12-03T01:32:56.103Z,10.80
2018-12-03T01:35:23.776Z,10.80
2018-12-03T01:37:51.295Z,10.80
2018-12-03T01:40:18.937Z,10.80
2018-12-03T01:42:46.545Z,10.80
2018-12-03T01:45:14.203Z,10.80
2018-12-03T01:47:41.800Z,10.80
2018-12-03T01:50:11.480Z,10.80
2018-12-03T01:52:39.102Z,10.80
2018-12-03T01:55:07.900Z,10.90
2018-12-03T01:57:35.505Z,10.90
2018-12-03T02:00:03.918Z,10.90
2018-12-03T02:02:31.528Z,10.90
2018-12-03T02:04:59.150Z,10.90
2018-12-03T02:07:26.722Z,10.90
2018-12-03T02:09:54.329Z,10.90
2018-12-03T02:12:21.975Z,10.90
2018-12-03T02:14:49.509Z,10.90
2018-12-03T02:17:17.068Z,10.90
2018-12-03T02:19:44.680Z,10.90
2018-12-03T02:22:12.336Z,10.90
2018-12-03T02:24:39.880Z,10.90
2018-12-03T02:27:07.478Z,10.90
2018-12-03T02:29:35.101Z,10.90
2018-12-03T02:32:02.727Z,10.90
2018-12-03T02:34:30.284Z,10.90
2018-12-03T02:36:57.846Z,10.90
2018-12-03T02:39:25.482Z,10.90
2018-12-03T02:41:53.069Z,10.90
2018-12-03T02:44:20.692Z,10.90
2018-12-03T02:46:48.254Z,10.90
2018-12-03T02:49:15.869Z,10.90
2018-12-03T02:51:43.467Z,11.00
2018-12-03T02:54:11.100Z,11.00
2018-12-03T02:56:38.706Z,11.00
2018-12-03T02:59:06.414Z,11.00
2018-12-03T03:01:34.002Z,11.00
2018-12-03T03:04:01.576Z,11.00
2018-12-03T03:06:29.165Z,11.00
2018-12-03T03:08:56.763Z,11.00
2018-12-03T03:11:24.392Z,11.00
2018-12-03T03:13:51.967Z,11.00
2018-12-03T03:16:19.528Z,11.00
2018-12-03T03:18:47.118Z,11.00
2018-12-03T03:21:14.726Z,11.00
2018-12-03T03:23:42.329Z,11.00
2018-12-03T03:26:09.902Z,11.00
2018-12-03T03:28:37.483Z,11.00
2018-12-03T03:31:05.248Z,11.00
2018-12-03T03:33:32.830Z,11.00
2018-12-03T03:36:00.416Z,10.90
2018-12-03T03:38:28.152Z,10.90
2018-12-03T03:40:55.867Z,11.00
2018-12-03T03:43:23.671Z,10.90
2018-12-03T03:45:51.449Z,10.90
2018-12-03T03:48:19.385Z,10.90
2018-12-03T03:50:47.138Z,10.90
2018-12-03T03:53:14.883Z,10.90
2018-12-03T03:55:42.659Z,10.90
2018-12-03T03:58:10.406Z,10.90
2018-12-03T04:00:38.173Z,10.90
2018-12-03T04:03:05.941Z,10.90
2018-12-03T04:05:33.721Z,10.90
2018-12-03T04:08:01.504Z,10.90
2018-12-03T04:10:29.253Z,10.90
2018-12-03T04:12:57.823Z,10.90
2018-12-03T04:15:25.679Z,10.90
2018-12-03T04:17:53.356Z,10.90
2018-12-03T04:20:21.147Z,10.90
2018-12-03T04:22:52.274Z,10.90
2018-12-03T04:25:19.957Z,10.90
2018-12-03T04:27:47.999Z,10.90
2018-12-03T04:30:17.120Z,10.90
2018-12-03T04:32:44.909Z,10.90
2018-12-03T04:35:13.164Z,10.90
2018-12-03T04:37:41.309Z,10.90
2018-12-03T04:40:10.262Z,10.90
2018-12-03T04:42:38.108Z,10.90
2018-12-03T04:45:10.001Z,10.90
2018-12-03T04:47:37.793Z,10.90
2018-12-03T04:50:12.557Z,10.90
2018-12-03T04:52:40.424Z,10.90
2018-12-03T04:55:08.461Z,10.90
2018-12-03T04:57:36.247Z,11.00
2018-12-03T05:00:07.173Z,11.00
2018-12-03T05:02:34.891Z,11.00
2018-12-03T05:05:02.681Z,11.00
2018-12-03T05:07:30.356Z,11.00
2018-12-03T05:09:57.932Z,11.00
2018-12-03T05:12:25.438Z,11.00
2018-12-03T05:14:53.096Z,11.00
2018-12-03T05:17:20.649Z,11.00
2018-12-03T05:19:48.288Z,11.00
2018-12-03T05:22:15.955Z,11.00
2018-12-03T05:24:43.537Z,11.00
2018-12-03T05:27:11.129Z,11.00
2018-12-03T05:29:38.730Z,10.90
2018-12-03T05:32:06.326Z,10.90
2018-12-03T05:34:33.844Z,10.90
2018-12-03T05:37:01.445Z,10.90
2018-12-03T05:39:29.045Z,10.90
2018-12-03T05:41:56.606Z,10.90
2018-12-03T05:44:24.164Z,10.90
2018-12-03T05:46:51.730Z,10.90
2018-12-03T05:49:19.353Z,10.90
2018-12-03T05:51:46.902Z,10.90
2018-12-03T05:54:14.671Z,10.90
2018-12-03T05:56:42.084Z,10.90
2018-12-03T05:59:09.710Z,10.90
2018-12-03T06:01:37.345Z,10.90
2018-12-03T06:04:05.395Z,10.90
2018-12-03T06:06:32.955Z,10.90
2018-12-03T06:09:00.480Z,10.90
2018-12-03T06:11:28.128Z,10.90
2018-12-03T06:13:55.624Z,10.90
2018-12-03T06:16:23.215Z,10.90
2018-12-03T06:18:50.970Z,10.90
2018-12-03T06:21:18.623Z,10.90
2018-12-03T06:23:46.242Z,10.90
2018-12-03T06:26:13.790Z,10.90
2018-12-03T06:28:41.432Z,10.90
2018-12-03T06:31:09.040Z,10.90
2018-12-03T06:33:36.679Z,10.90
2018-12-03T06:36:04.538Z,10.90
2018-12-03T06:38:32.090Z,10.90
2018-12-03T06:40:59.671Z,10.90
2018-12-03T06:43:27.270Z,10.90
2018-12-03T06:45:54.863Z,11.00
2018-12-03T06:48:23.377Z,10.90
2018-12-03T06:50:51.022Z,10.90
2018-12-03T06:53:18.669Z,10.90
2018-12-03T06:55:46.219Z,11.00
2018-12-03T06:58:14.597Z,11.00
2018-12-03T07:00:44.134Z,11.00
2018-12-03T07:03:11.723Z,11.00
2018-12-03T07:05:39.342Z,11.00
2018-12-03T07:08:07.899Z,11.00
2018-12-03T07:10:35.496Z,11.00
2018-12-03T07:13:05.692Z,11.00
2018-12-03T07:15:35.047Z,11.10
2018-12-03T07:18:02.714Z,11.10
2018-12-03T07:20:30.364Z,11.10
2018-12-03T07:22:57.990Z,11.10
2018-12-03T07:25:25.595Z,11.10
2018-12-03T07:27:53.222Z,11.10
2018-12-03T07:30:23.314Z,11.10
2018-12-03T07:32:51.371Z,11.10
2018-12-03T07:35:19.719Z,11.10
2018-12-03T07:37:47.919Z,11.10
2018-12-03T07:40:15.552Z,11.10
2018-12-03T07:42:43.208Z,11.10
2018-12-03T07:45:12.961Z,11.10
2018-12-03T07:47:40.589Z,11.10
2018-12-03T07:50:12.417Z,11.20
2018-12-03T07:52:40.058Z,11.20
2018-12-03T07:55:10.974Z,11.20
2018-12-03T07:57:39.766Z,11.20
2018-12-03T08:00:11.722Z,11.30
2018-12-03T08:02:39.252Z,11.30
2018-12-03T08:07:58.745Z,11.30
2018-12-03T08:10:26.330Z,11.30
2018-12-03T08:12:53.967Z,11.30
2018-12-03T08:15:21.553Z,11.30
2018-12-03T08:17:56.949Z,11.30
2018-12-03T08:20:30.702Z,11.30
2018-12-03T08:23:01.969Z,11.30
2018-12-03T08:25:29.619Z,11.30
2018-12-03T08:27:57.271Z,11.30
2018-12-03T08:30:24.895Z,11.30
2018-12-03T08:32:52.520Z,11.30
2018-12-03T08:35:20.142Z,11.30
2018-12-03T08:37:47.733Z,11.30
2018-12-03T08:40:17.522Z,11.40
2018-12-03T08:42:48.316Z,11.40
2018-12-03T08:45:16.157Z,11.40
2018-12-03T08:47:43.928Z,11.50
2018-12-03T08:50:15.602Z,11.50
2018-12-03T08:52:43.175Z,11.50
2018-12-03T08:55:11.755Z,11.50
2018-12-03T08:57:39.325Z,11.50
2018-12-03T09:00:13.543Z,11.60
2018-12-03T09:02:45.294Z,11.60
2018-12-03T09:05:12.925Z,11.70
2018-12-03T09:07:40.661Z,11.70
2018-12-03T09:10:13.626Z,11.80
2018-12-03T09:12:41.140Z,11.80
2018-12-03T09:15:08.666Z,11.80
2018-12-03T09:17:36.261Z,11.80
2018-12-03T09:20:05.367Z,11.90
2018-12-03T09:22:33.001Z,11.90
2018-12-03T09:25:00.609Z,11.90
2018-12-03T09:27:28.263Z,11.90
2018-12-03T09:29:58.116Z,11.90
2018-12-03T09:32:30.660Z,11.90
2018-12-03T09:34:58.864Z,11.90
2018-12-03T09:37:28.554Z,11.90
2018-12-03T09:39:56.497Z,11.90
2018-12-03T09:42:29.748Z,11.90
2018-12-03T09:44:57.347Z,11.90
2018-12-03T09:47:24.932Z,11.90
2018-12-03T09:49:52.575Z,11.90
2018-12-03T09:52:20.187Z,12.00
2018-12-03T09:54:47.785Z,12.00
2018-12-03T09:57:15.460Z,12.00
2018-12-03T09:59:43.044Z,12.00
2018-12-03T10:02:10.684Z,12.10
2018-12-03T10:04:41.182Z,12.10
2018-12-03T10:07:08.764Z,12.10
2018-12-03T10:09:38.148Z,12.20
2018-12-03T10:12:07.234Z,12.20
2018-12-03T10:14:34.810Z,12.20
2018-12-03T10:17:02.409Z,12.30
2018-12-03T10:19:29.978Z,12.30
2018-12-03T10:21:57.537Z,12.40
2018-12-03T10:24:25.103Z,12.40
2018-12-03T10:26:52.701Z,12.40
2018-12-03T10:29:20.387Z,12.40
2018-12-03T10:31:47.985Z,12.50
2018-12-03T10:34:17.176Z,12.50
2018-12-03T10:36:52.747Z,12.50
2018-12-03T10:39:25.532Z,12.60
2018-12-03T10:41:57.040Z,12.60
2018-12-03T10:44:24.708Z,12.60
2018-12-03T10:46:52.377Z,12.60
2018-12-03T10:49:19.947Z,12.60
2018-12-03T10:51:47.631Z,12.60
2018-12-03T10:54:15.250Z,12.70
2018-12-03T10:56:42.847Z,12.70
2018-12-03T10:59:10.452Z,12.70
2018-12-03T11:02:00.826Z,12.70
2018-12-03T11:04:38.871Z,12.70
2018-12-03T11:07:10.701Z,12.80
2018-12-03T11:09:38.330Z,12.80
2018-12-03T11:12:06.026Z,12.80
2018-12-03T11:14:33.587Z,12.80
2018-12-03T11:17:01.241Z,12.80
2018-12-03T11:19:28.897Z,12.80
2018-12-03T11:21:56.596Z,12.80
2018-12-03T11:24:24.229Z,12.80
2018-12-03T11:26:55.292Z,12.80
2018-12-03T11:29:22.879Z,12.80
2018-12-03T11:31:50.553Z,12.90
2018-12-03T11:34:21.839Z,12.90
2018-12-03T11:36:58.464Z,12.90
2018-12-03T11:39:43.684Z,12.90
2018-12-03T11:42:12.099Z,12.90
2018-12-03T11:44:39.703Z,13.00
2018-12-03T11:47:07.310Z,13.00
2018-12-03T11:49:34.917Z,13.00
2018-12-03T11:52:02.511Z,13.00
2018-12-03T11:54:30.042Z,13.00
2018-12-03T11:56:57.611Z,13.10
2018-12-03T11:59:25.182Z,13.10
2018-12-03T12:01:53.174Z,13.10
2018-12-03T12:04:20.737Z,13.10
2018-12-03T12:06:48.343Z,13.10
2018-12-03T12:09:20.846Z,13.10
2018-12-03T12:11:43.590Z,13.10
2018-12-03T12:14:20.236Z,13.10
2018-12-03T12:16:48.080Z,13.10
2018-12-03T12:19:15.716Z,13.10
2018-12-03T12:21:43.341Z,13.10
2018-12-03T12:24:17.737Z,13.10
2018-12-03T12:26:45.447Z,13.10
2018-12-03T12:29:13.100Z,13.10
2018-12-03T12:31:40.761Z,13.10
2018-12-03T12:34:08.391Z,13.10
2018-12-03T12:36:36.039Z,13.20
2018-12-03T12:39:08.701Z,13.20
2018-12-03T12:41:36.519Z,13.20
2018-12-03T12:44:05.482Z,13.20
2018-12-03T12:46:33.117Z,13.10
2018-12-03T12:49:00.869Z,13.10
2018-12-03T12:51:28.445Z,13.10
2018-12-03T12:53:56.021Z,13.00
2018-12-03T12:56:23.595Z,13.00
2018-12-03T12:58:51.168Z,12.90
2018-12-03T13:01:18.727Z,12.90
2018-12-03T13:03:47.227Z,12.80
2018-12-03T13:06:14.809Z,12.80
2018-12-03T13:08:42.384Z,12.70
2018-12-03T13:11:10.004Z,12.70
2018-12-03T13:13:37.634Z,12.70
2018-12-03T13:16:05.462Z,12.70
2018-12-03T13:18:33.130Z,12.70
2018-12-03T13:21:00.830Z,12.70
2018-12-03T13:23:28.440Z,12.70
2018-12-03T13:25:56.138Z,12.70
2018-12-03T13:28:23.717Z,12.70
2018-12-03T13:30:51.437Z,12.70
2018-12-03T13:33:18.983Z,12.70
2018-12-03T13:35:46.600Z,12.70
2018-12-03T13:38:14.199Z,12.70
2018-12-03T13:40:41.896Z,12.70
2018-12-03T13:43:09.829Z,12.60
2018-12-03T13:45:37.415Z,12.60
2018-12-03T13:48:05.385Z,12.60
2018-12-03T13:50:32.987Z,12.60
2018-12-03T13:53:00.702Z,12.60
2018-12-03T13:55:28.309Z,12.60
2018-12-03T13:57:55.867Z,12.60
2018-12-03T14:00:24.727Z,12.70
2018-12-03T14:03:05.627Z,12.70
2018-12-03T14:05:37.686Z,12.70
2018-12-03T14:08:15.192Z,12.70
2018-12-03T14:11:53.923Z,12.70
2018-12-03T14:15:19.550Z,12.70
2018-12-03T14:17:53.478Z,12.70
2018-12-03T14:20:22.140Z,12.70
2018-12-03T14:22:57.669Z,12.60
2018-12-03T14:25:25.343Z,12.60
2018-12-03T14:27:52.928Z,12.60
2018-12-03T14:30:20.570Z,12.60
2018-12-03T14:32:48.157Z,12.60
2018-12-03T14:35:15.810Z,12.60
2018-12-03T14:37:43.455Z,12.60
2018-12-03T14:40:11.112Z,12.50
2018-12-03T14:42:38.772Z,12.50
2018-12-03T14:45:09.390Z,12.50
2018-12-03T14:47:36.981Z,12.50
2018-12-03T14:50:06.929Z,12.40
2018-12-03T14:52:34.497Z,12.40
2018-12-03T14:55:02.153Z,12.40
2018-12-03T14:57:29.827Z,12.40
2018-12-03T14:59:57.468Z,12.40
2018-12-03T15:02:25.095Z,12.40
2018-12-03T15:04:52.641Z,12.40
2018-12-03T15:07:20.191Z,12.40
2018-12-03T15:09:47.809Z,12.40
2018-12-03T15:12:15.413Z,12.40
2018-12-03T15:14:43.060Z,12.40
2018-12-03T15:17:10.631Z,12.30
2018-12-03T15:19:38.299Z,12.30
2018-12-03T15:22:06.014Z,12.30
2018-12-03T15:24:33.615Z,12.30
2018-12-03T15:27:01.287Z,12.20
2018-12-03T15:29:28.954Z,12.20
2018-12-03T15:31:56.574Z,12.20
2018-12-03T15:34:24.197Z,12.20
2018-12-03T15:36:51.827Z,12.20
2018-12-03T15:39:19.447Z,12.20
2018-12-03T15:41:47.081Z,12.20
2018-12-03T15:44:14.809Z,12.20
2018-12-03T15:46:42.413Z,12.10
2018-12-03T15:49:10.061Z,12.10
2018-12-03T15:51:37.698Z,12.10
2018-12-03T15:54:05.314Z,12.10
2018-12-03T15:56:33.000Z,12.10
2018-12-03T15:59:00.661Z,12.10
2018-12-03T16:01:28.331Z,12.10
2018-12-03T16:03:56.131Z,12.10
2018-12-03T16:06:23.774Z,12.10
2018-12-03T16:08:51.443Z,12.10
2018-12-03T16:11:19.092Z,12.10
2018-12-03T16:13:46.631Z,12.10
2018-12-03T16:16:14.248Z,12.10
2018-12-03T16:18:41.878Z,12.00
2018-12-03T16:21:09.533Z,12.00
2018-12-03T16:23:37.171Z,12.00
2018-12-03T16:26:04.816Z,12.00
2018-12-03T16:28:32.466Z,12.00
2018-12-03T16:31:00.135Z,12.00
2018-12-03T16:33:27.741Z,12.00
2018-12-03T16:35:55.451Z,11.90
2018-12-03T16:38:23.052Z,12.00
2018-12-03T16:40:50.600Z,11.90
2018-12-03T16:43:18.227Z,11.90
2018-12-03T16:45:45.882Z,11.90
2018-12-03T16:48:13.483Z,11.90
2018-12-03T16:50:41.112Z,11.90
2018-12-03T16:53:08.770Z,11.90
2018-12-03T16:55:36.395Z,11.90
2018-12-03T16:58:04.096Z,11.90
2018-12-03T17:00:31.747Z,11.90
2018-12-03T17:02:59.370Z,11.80
2018-12-03T17:05:27.025Z,11.80
2018-12-03T17:07:54.721Z,11.80
2018-12-03T17:10:22.361Z,11.80
2018-12-03T17:12:51.444Z,11.80
2018-12-03T17:15:49.695Z,11.80
2018-12-03T17:18:19.361Z,11.90
2018-12-03T17:21:07.284Z,11.80
2018-12-03T17:23:42.489Z,11.80
2018-12-03T17:26:10.243Z,11.80
2018-12-03T17:28:37.886Z,11.80
2018-12-03T17:31:05.450Z,11.90
2018-12-03T17:33:33.027Z,11.80
2018-12-03T17:36:00.591Z,11.80
2018-12-03T17:38:28.125Z,11.80
2018-12-03T17:40:55.808Z,11.80
2018-12-03T17:43:23.563Z,11.80
2018-12-03T17:45:51.124Z,11.80
2018-12-03T17:48:18.707Z,11.80
2018-12-03T17:50:46.251Z,11.80
2018-12-03T17:53:13.760Z,11.80
2018-12-03T17:55:41.343Z,11.80
2018-12-03T17:58:10.172Z,11.80
2018-12-03T18:00:37.682Z,11.80
2018-12-03T18:03:05.201Z,11.80
2018-12-03T18:05:32.805Z,11.80
2018-12-03T18:08:00.484Z,11.80
2018-12-03T18:10:27.974Z,11.80
2018-12-03T18:12:55.471Z,11.80
2018-12-03T18:15:23.015Z,11.80
2018-12-03T18:17:50.594Z,11.80
2018-12-03T18:20:18.163Z,11.80
2018-12-03T18:22:45.634Z,11.80
2018-12-03T18:25:13.183Z,11.80
2018-12-03T18:27:40.856Z,11.80
2018-12-03T18:30:08.847Z,11.80
2018-12-03T18:32:36.370Z,11.80
2018-12-03T18:35:04.183Z,11.80
2018-12-03T18:37:31.779Z,11.80
2018-12-03T18:39:59.322Z,11.70
2018-12-03T18:42:26.880Z,11.70
2018-12-03T18:44:54.354Z,11.70
2018-12-03T18:47:21.952Z,11.70
2018-12-03T18:49:52.595Z,11.70
2018-12-03T18:52:21.549Z,11.70
2018-12-03T18:54:49.294Z,11.70
2018-12-03T18:57:17.097Z,11.70
2018-12-03T18:59:44.827Z,11.70
2018-12-03T19:02:12.426Z,11.70
2018-12-03T19:04:40.022Z,11.70
2018-12-03T19:07:07.560Z,11.60
2018-12-03T19:09:35.103Z,11.60
2018-12-03T19:12:02.731Z,11.60
2018-12-03T19:14:30.381Z,11.60
2018-12-03T19:16:57.985Z,11.60
2018-12-03T19:19:25.565Z,11.60
2018-12-03T19:21:53.204Z,11.50
2018-12-03T19:24:20.875Z,11.50
2018-12-03T19:26:48.480Z,11.50
2018-12-03T19:29:16.093Z,11.50
2018-12-03T19:31:45.619Z,11.40
2018-12-03T19:34:15.332Z,11.40
2018-12-03T19:36:44.911Z,11.40
2018-12-03T19:39:18.611Z,11.40
2018-12-03T19:41:46.188Z,11.40
2018-12-03T19:44:13.784Z,11.30
2018-12-03T19:46:41.357Z,11.30
2018-12-03T19:49:08.988Z,11.30
2018-12-03T19:51:36.574Z,11.30
2018-12-03T19:54:04.477Z,11.30
2018-12-03T19:56:32.076Z,11.20
2018-12-03T19:58:59.661Z,11.20
2018-12-03T20:01:27.366Z,11.20
2018-12-03T20:03:54.959Z,11.10
2018-12-03T20:06:22.547Z,11.10
2018-12-03T20:08:50.259Z,11.10
2018-12-03T20:11:17.864Z,11.10
2018-12-03T20:13:45.434Z,11.00
2018-12-03T20:16:13.154Z,11.00
2018-12-03T20:18:40.740Z,11.00
2018-12-03T20:21:11.209Z,11.00
2018-12-03T20:23:42.399Z,11.00
2018-12-03T20:26:14.484Z,11.00
2018-12-03T20:29:01.959Z,10.90
2018-12-03T20:31:49.175Z,10.90
2018-12-03T20:34:26.711Z,10.90
2018-12-03T20:39:12.681Z,10.90
2018-12-03T20:41:44.272Z,10.80
2018-12-03T20:44:30.804Z,10.70
2018-12-03T20:47:09.808Z,10.70
2018-12-03T20:49:44.037Z,10.70
2018-12-03T20:52:15.573Z,10.60
2018-12-03T20:54:43.157Z,10.60
2018-12-03T20:57:10.744Z,10.60
2018-12-03T20:59:38.336Z,10.60
2018-12-03T21:02:09.006Z,10.60
2018-12-03T21:04:36.574Z,10.60
2018-12-03T21:07:04.104Z,10.60
2018-12-03T21:09:31.626Z,10.60
2018-12-03T21:11:59.139Z,10.60
2018-12-03T21:14:26.697Z,10.60
2018-12-03T21:16:54.251Z,10.60
2018-12-03T21:19:21.841Z,10.60
2018-12-03T21:21:49.819Z,10.70
2018-12-03T21:24:17.391Z,10.70
2018-12-03T21:26:44.974Z,10.70
2018-12-03T21:29:12.622Z,10.70
2018-12-03T21:31:40.188Z,10.70
2018-12-03T21:34:07.811Z,10.70
2018-12-03T21:36:35.370Z,10.70
2018-12-03T21:39:04.561Z,10.70
2018-12-03T21:41:34.166Z,10.70
2018-12-03T21:44:01.871Z,10.70
2018-12-03T21:46:29.499Z,10.70
2018-12-03T21:48:57.087Z,10.70
2018-12-03T21:51:24.626Z,10.70
2018-12-03T21:53:52.182Z,10.70
2018-12-03T21:56:19.807Z,10.70
2018-12-03T21:58:47.432Z,10.70
2018-12-03T22:01:15.041Z,10.70
2018-12-03T22:03:42.748Z,10.70
2018-12-03T22:06:10.410Z,10.60
2018-12-03T22:08:38.120Z,10.60
2018-12-03T22:11:05.718Z,10.60
2018-12-03T22:13:33.239Z,10.60
2018-12-03T22:16:00.787Z,10.60
2018-12-03T22:18:28.483Z,10.60
2018-12-03T22:20:56.170Z,10.60
2018-12-03T22:23:23.750Z,10.60
2018-12-03T22:25:51.289Z,10.60
2018-12-03T22:28:18.831Z,10.60
2018-12-03T22:30:46.409Z,10.60
2018-12-03T22:33:13.935Z,10.50
2018-12-03T22:35:41.454Z,10.50
2018-12-03T22:38:08.949Z,10.50
2018-12-03T22:40:36.443Z,10.50
2018-12-03T22:43:04.058Z,10.50
2018-12-03T22:45:31.631Z,10.50
2018-12-03T22:47:59.183Z,10.50
2018-12-03T22:50:26.695Z,10.50
2018-12-03T22:52:54.215Z,10.50
2018-12-03T22:55:21.748Z,10.50
2018-12-03T22:57:49.311Z,10.50
2018-12-03T23:00:23.503Z,10.50
2018-12-03T23:02:53.099Z,10.50
2018-12-03T23:05:20.640Z,10.40
2018-12-03T23:07:48.195Z,10.40
2018-12-03T23:10:15.706Z,10.40
2018-12-03T23:12:45.303Z,10.40
2018-12-03T23:15:12.858Z,10.40
2018-12-03T23:17:40.385Z,10.30
2018-12-03T23:20:08.211Z,10.30
2018-12-03T23:22:35.788Z,10.30
2018-12-03T23:25:04.274Z,10.30
2018-12-03T23:27:31.829Z,10.30
2018-12-03T23:29:59.403Z,10.30
2018-12-03T23:32:26.919Z,10.30
2018-12-03T23:34:54.434Z,10.30
2018-12-03T23:37:22.005Z,10.30
2018-12-03T23:39:49.536Z,10.30
2018-12-03T23:42:17.188Z,10.30
2018-12-03T23:44:44.730Z,10.30
2018-12-03T23:47:12.253Z,10.30
2018-12-03T23:49:40.943Z,10.30
2018-12-03T23:52:08.467Z,10.30
2018-12-03T23:54:35.963Z,10.30
2018-12-03T23:57:03.690Z,10.30
2018-12-03T23:59:31.232Z,10.30
